Time;durP1;ratioP1;P1;durP2;ratioP2;P2;SDS_P1;SDS_P2;PMS_P1;PMS_P2;Temp;Humidity;BMP_temperature;BMP_pressure;BME280_temperature;BME280_humidity;BME280_pressure;Samples;Min_cycle;Max_cycle;Signal;HPM_P1;HPM_P2
2023/07/28 00:02:00;;;;;;;;;;;;;;;;;;;;;
2023/07/28 00:07:25;;;;;;;35.10;32.88;;;;;;;;;;6225625;22;20043;-96
2023/07/28 00:10:23;;;;;;;32.70;30.75;;;;;;;;;;6315885;22;20012;-95
2023/07/28 00:12:56;;;;;;;30.48;28.73;;;;;;;;;;6285684;22;20082;-96
2023/07/28 00:15:22;;;;;;;34.17;32.17;;;;;;;;;;6318918;22;20030;-95
2023/07/28 00:24:13;;;;;;;31.80;29.90;;;;;;;;;;6382771;22;20010;-96
2023/07/28 00:27:21;;;;;;;34.03;31.88;;;;;;;;;;6384102;22;20009;-96
2023/07/28 00:32:23;;;;;;;30.52;28.73;;;;;;;;;;6373891;22;20028;-96
2023/07/28 00:35:17;;;;;;;34.95;32.65;;;;;;;;;;6422350;22;20022;-96
2023/07/28 00:40:23;;;;;;;32.78;30.83;;;;;;;;;;6396847;22;20043;-96
2023/07/28 00:42:49;;;;;;;35.15;33.10;;;;;;;;;;6410118;22;20025;-95
2023/07/28 00:45:34;;;;;;;33.47;31.40;;;;;;;;;;6405380;22;20001;-93
2023/07/28 00:48:01;;;;;;;31.02;28.98;;;;;;;;;;6409663;22;19997;-94
2023/07/28 00:50:30;;;;;;;38.92;36.60;;;;;;;;;;6409266;22;20386;-94
2023/07/28 00:53:00;;;;;;;33.13;31.08;;;;;;;;;;6409354;22;19997;-95
2023/07/28 00:55:29;;;;;;;39.03;36.58;;;;;;;;;;6409222;22;20002;-94
2023/07/28 00:58:04;;;;;;;37.17;34.88;;;;;;;;;;6409556;22;20025;-94
2023/07/28 01:00:33;;;;;;;38.40;36.15;;;;;;;;;;6409378;22;20005;-94
2023/07/28 01:03:00;;;;;;;37.63;35.47;;;;;;;;;;6409085;22;20088;-95
2023/07/28 01:05:55;;;;;;;40.00;37.75;;;;;;;;;;6409243;22;20379;-94
2023/07/28 01:08:41;;;;;;;36.20;33.90;;;;;;;;;;6352421;22;20006;-94
2023/07/28 01:11:25;;;;;;;34.38;32.25;;;;;;;;;;6251020;22;20326;-95
2023/07/28 01:13:55;;;;;;;34.25;32.25;;;;;;;;;;6271578;22;20126;-95
2023/07/28 01:16:27;;;;;;;38.85;36.58;;;;;;;;;;6416252;22;20009;-95
2023/07/28 01:19:05;;;;;;;33.25;31.35;;;;;;;;;;6409516;22;20002;-95
2023/07/28 01:21:38;;;;;;;40.95;38.60;;;;;;;;;;6410187;22;20055;-95
2023/07/28 01:27:11;;;;;;;40.40;38.03;;;;;;;;;;6441058;22;20011;-95
2023/07/28 01:32:21;;;;;;;36.95;34.47;;;;;;;;;;6453357;22;20022;-96
2023/07/28 01:34:50;;;;;;;37.92;35.42;;;;;;;;;;6421560;22;20005;-96
2023/07/28 01:37:16;;;;;;;35.58;33.42;;;;;;;;;;6409105;22;19993;-96
2023/07/28 01:39:48;;;;;;;37.50;35.33;;;;;;;;;;6338801;22;20483;-95
2023/07/28 01:42:17;;;;;;;38.60;36.40;;;;;;;;;;6313026;22;19998;-96
2023/07/28 01:44:43;;;;;;;38.75;36.50;;;;;;;;;;6310452;22;20010;-94
2023/07/28 01:47:12;;;;;;;40.58;38.13;;;;;;;;;;6312859;22;19998;-96
2023/07/28 01:49:50;;;;;;;41.47;38.95;;;;;;;;;;6312671;22;20341;-94
2023/07/28 01:52:25;;;;;;;40.92;38.38;;;;;;;;;;6313613;22;19999;-96
2023/07/28 01:54:51;;;;;;;43.67;41.22;;;;;;;;;;6313338;22;20009;-96
2023/07/28 01:57:21;;;;;;;48.92;46.17;;;;;;;;;;6312905;22;20026;-96
2023/07/28 01:59:49;;;;;;;44.72;42.03;;;;;;;;;;6312678;22;20070;-96
2023/07/28 02:02:19;;;;;;;47.40;44.67;;;;;;;;;;6313237;22;20003;-96
2023/07/28 02:04:48;;;;;;;44.55;42.00;;;;;;;;;;6313137;22;19999;-95
2023/07/28 02:07:17;;;;;;;44.15;41.53;;;;;;;;;;6312720;22;20007;-96
2023/07/28 02:09:43;;;;;;;44.38;41.80;;;;;;;;;;6321873;22;20036;-96
2023/07/28 02:12:15;;;;;;;56.22;52.95;;;;;;;;;;6408705;22;19997;-96
2023/07/28 02:14:47;;;;;;;55.38;52.17;;;;;;;;;;6408825;22;20104;-96
2023/07/28 02:20:24;;;;;;;55.40;52.30;;;;;;;;;;6276382;22;20006;-95
2023/07/28 02:22:56;;;;;;;58.78;55.38;;;;;;;;;;6253078;22;20042;-96
2023/07/28 02:25:22;;;;;;;57.40;54.17;;;;;;;;;;6264713;22;19988;-96
2023/07/28 02:27:48;;;;;;;50.00;47.08;;;;;;;;;;6259397;22;20504;-96
2023/07/28 02:30:15;;;;;;;52.03;49.10;;;;;;;;;;6254332;22;20135;-95
2023/07/28 02:32:43;;;;;;;51.60;48.67;;;;;;;;;;6223932;23;20018;-96
2023/07/28 02:35:10;;;;;;;51.63;48.65;;;;;;;;;;6223704;23;20436;-96
2023/07/28 02:37:45;;;;;;;54.70;51.33;;;;;;;;;;6220884;23;20028;-96
2023/07/28 02:40:24;;;;;;;;;;;;;;;;;;;;;
2023/07/28 02:42:58;;;;;;;53.67;50.58;;;;;;;;;;6246143;23;20072;-96
2023/07/28 02:45:27;;;;;;;59.50;56.15;;;;;;;;;;6219120;23;20012;-95
2023/07/28 02:47:56;;;;;;;41.70;39.20;;;;;;;;;;6220774;23;20087;-95
2023/07/28 02:50:28;;;;;;;53.25;50.00;;;;;;;;;;6220308;23;20457;-95
2023/07/28 02:52:57;;;;;;;51.85;48.85;;;;;;;;;;6220816;23;20054;-96
2023/07/28 02:55:26;;;;;;;55.10;51.95;;;;;;;;;;6220553;23;20004;-96
2023/07/28 02:57:58;;;;;;;49.83;46.58;;;;;;;;;;6348990;22;19998;-96
2023/07/28 03:00:30;;;;;;;58.85;55.30;;;;;;;;;;6369535;22;20009;-96
2023/07/28 03:02:59;;;;;;;60.90;57.45;;;;;;;;;;6370191;22;20009;-96
2023/07/28 03:05:28;;;;;;;64.53;60.78;;;;;;;;;;6370760;22;20002;-96
2023/07/28 03:08:10;;;;;;;55.83;52.60;;;;;;;;;;6371593;22;20002;-96
2023/07/28 03:19:38;;;;;;;59.10;55.50;;;;;;;;;;6431567;22;20028;-96
2023/07/28 03:22:08;;;;;;;59.90;56.30;;;;;;;;;;6423768;22;19997;-96
2023/07/28 03:42:58;;;;;;;49.60;46.67;;;;;;;;;;6290799;22;20108;-96
2023/07/28 03:45:30;;;;;;;49.10;45.92;;;;;;;;;;6268947;22;20028;-96
2023/07/28 03:48:08;;;;;;;;;;;;;;;;;;;;;
2023/07/28 03:51:01;;;;;;;63.72;59.83;;;;;;;;;;6230135;23;20013;-96
2023/07/28 03:53:49;;;;;;;49.22;46.38;;;;;;;;;;6167379;23;20002;-96
2023/07/28 03:59:19;;;;;;;54.45;51.42;;;;;;;;;;6217347;23;20008;-95
2023/07/28 04:02:21;;;;;;;64.28;60.65;;;;;;;;;;6200496;23;20005;-96
2023/07/28 04:08:21;;;;;;;40.53;37.88;;;;;;;;;;6169841;23;20056;-96
2023/07/28 04:10:59;;;;;;;52.60;49.42;;;;;;;;;;6168424;23;20021;-96
2023/07/28 04:16:47;;;;;;;;;;;;;;;;;;;;;
2023/07/28 04:19:33;;;;;;;;;;;;;;;;;;;;;
2023/07/28 04:22:21;;;;;;;56.00;52.72;;;;;;;;;;6303570;22;20042;-95
2023/07/28 05:02:41;;;;;;;38.15;35.83;;;;;;;;;;6311150;22;20013;-94
2023/07/28 05:05:21;;;;;;;;;;;;;;;;;;;;;
2023/07/28 05:07:50;;;;;;;44.35;41.35;;;;;;;;;;6310877;22;20078;-94
2023/07/28 05:10:16;;;;;;;42.95;40.17;;;;;;;;;;6333090;22;20053;-95
2023/07/28 05:12:51;;;;;;;42.15;39.65;;;;;;;;;;6333570;22;20011;-94
2023/07/28 05:15:21;;;;;;;51.92;48.83;;;;;;;;;;6333136;22;20422;-95
2023/07/28 05:17:50;;;;;;;43.20;40.53;;;;;;;;;;6333286;22;20008;-95
2023/07/28 05:20:16;;;;;;;41.13;38.50;;;;;;;;;;6333398;22;20137;-95
2023/07/28 05:22:48;;;;;;;40.15;37.47;;;;;;;;;;6324175;22;20456;-95
2023/07/28 05:25:14;;;;;;;50.45;47.55;;;;;;;;;;6335606;22;20011;-95
2023/07/28 05:27:46;;;;;;;47.80;44.90;;;;;;;;;;6335260;22;19999;-95
2023/07/28 05:30:15;;;;;;;39.47;37.08;;;;;;;;;;6334685;22;20076;-95
2023/07/28 05:32:46;;;;;;;40.78;38.28;;;;;;;;;;6335082;22;20001;-95
2023/07/28 05:35:20;;;;;;;37.35;34.85;;;;;;;;;;6336564;22;20060;-94
2023/07/28 05:37:49;;;;;;;40.85;38.38;;;;;;;;;;6335613;22;20006;-95
2023/07/28 05:40:20;;;;;;;36.35;34.10;;;;;;;;;;6307514;22;20137;-95
2023/07/28 05:42:47;;;;;;;35.42;33.28;;;;;;;;;;6334146;22;20053;-94
2023/07/28 05:45:18;;;;;;;40.80;38.40;;;;;;;;;;6334214;22;20096;-96
2023/07/28 05:47:56;;;;;;;37.50;35.03;;;;;;;;;;6276345;22;20018;-94
2023/07/28 06:01:28;;;;;;;38.70;36.33;;;;;;;;;;6307459;22;20512;-94
2023/07/28 06:04:04;;;;;;;31.30;29.37;;;;;;;;;;6282438;22;20094;-93
2023/07/28 06:06:33;;;;;;;44.58;41.85;;;;;;;;;;6283103;22;20004;-93
2023/07/28 06:08:59;;;;;;;44.80;42.08;;;;;;;;;;6285815;22;20015;-95
2023/07/28 06:11:26;;;;;;;38.90;36.58;;;;;;;;;;6283434;22;20000;-93
2023/07/28 06:13:55;;;;;;;36.88;34.60;;;;;;;;;;6274627;22;20027;-93
2023/07/28 06:16:24;;;;;;;35.17;32.75;;;;;;;;;;6294445;22;20364;-93
2023/07/28 06:18:59;;;;;;;42.47;39.88;;;;;;;;;;6298010;22;19996;-94
2023/07/28 06:21:33;;;;;;;34.90;32.80;;;;;;;;;;6296885;22;20007;-94
2023/07/28 06:29:51;;;;;;;57.60;54.00;;;;;;;;;;6322948;22;20103;-94
2023/07/28 06:32:28;;;;;;;45.13;42.42;;;;;;;;;;6216480;23;20056;-94
2023/07/28 06:34:54;;;;;;;57.15;53.65;;;;;;;;;;6217394;23;20008;-94
2023/07/28 06:46:05;;;;;;;65.60;61.65;;;;;;;;;;6436592;22;20008;-92
2023/07/28 06:48:34;;;;;;;54.42;51.05;;;;;;;;;;6408124;22;20025;-91
2023/07/28 06:51:00;;;;;;;50.47;47.25;;;;;;;;;;6408335;22;20006;-92
2023/07/28 06:54:02;;;;;;;64.45;58.70;;;;;;;;;;6411318;22;20005;-96
2023/07/28 06:56:28;;;;;;;49.63;46.28;;;;;;;;;;6410879;22;20491;-95
2023/07/28 07:07:38;;;;;;;77.57;73.00;;;;;;;;;;6415724;22;20030;-94
2023/07/28 07:10:15;;;;;;;84.75;79.53;;;;;;;;;;6411072;22;20092;-93
2023/07/28 07:15:46;;;;;;;123.72;116.60;;;;;;;;;;6431487;22;20065;-93
2023/07/28 07:18:15;;;;;;;134.68;126.93;;;;;;;;;;6411061;22;19997;-92
2023/07/28 07:20:47;;;;;;;110.28;103.97;;;;;;;;;;6411015;22;20080;-92
2023/07/28 07:23:19;;;;;;;107.32;101.13;;;;;;;;;;6418532;22;19989;-91
2023/07/28 07:25:45;;;;;;;103.25;97.38;;;;;;;;;;6435932;22;19990;-92
2023/07/28 07:28:14;;;;;;;112.85;106.28;;;;;;;;;;6422932;22;19998;-93
2023/07/28 07:30:40;;;;;;;73.93;69.55;;;;;;;;;;6415434;22;20086;-93
2023/07/28 07:33:25;;;;;;;91.80;86.30;;;;;;;;;;6412669;22;20013;-95
2023/07/28 07:36:09;;;;;;;89.78;84.55;;;;;;;;;;6414801;22;20001;-94
2023/07/28 07:38:53;;;;;;;112.57;105.95;;;;;;;;;;6386497;22;20076;-93
2023/07/28 07:41:29;;;;;;;123.47;116.53;;;;;;;;;;6411053;22;20024;-93
2023/07/28 07:44:02;;;;;;;152.60;143.60;;;;;;;;;;6400681;22;20483;-94
2023/07/28 07:46:43;;;;;;;108.82;102.70;;;;;;;;;;6408453;22;20376;-93
2023/07/28 07:49:12;;;;;;;111.18;104.78;;;;;;;;;;6408459;22;20406;-92
2023/07/28 07:51:59;;;;;;;101.20;95.15;;;;;;;;;;6408130;22;20005;-94
2023/07/28 07:54:25;;;;;;;106.40;100.35;;;;;;;;;;6408790;22;20092;-91
2023/07/28 07:56:54;;;;;;;93.32;88.05;;;;;;;;;;6409109;22;19997;-91
2023/07/28 07:59:21;;;;;;;681.20;633.38;;;;;;;;;;6408220;22;20092;-93
2023/07/28 08:01:47;;;;;;;683.83;634.85;;;;;;;;;;6408593;22;20005;-92
2023/07/28 08:04:13;;;;;;;642.72;597.80;;;;;;;;;;6407830;22;20054;-93
2023/07/28 08:07:09;;;;;;;639.20;594.70;;;;;;;;;;6402392;22;20016;-93
2023/07/28 08:09:43;;;;;;;600.65;559.45;;;;;;;;;;6403225;22;20506;-91
2023/07/28 08:12:12;;;;;;;589.63;549.28;;;;;;;;;;6402684;22;20004;-92
2023/07/28 08:17:27;;;;;;;564.08;525.55;;;;;;;;;;6397023;22;20017;-92
2023/07/28 08:19:56;;;;;;;194.85;184.45;;;;;;;;;;6386489;22;20070;-93
2023/07/28 08:22:28;;;;;;;439.13;410.85;;;;;;;;;;6382863;22;20063;-91
2023/07/28 08:36:29;;;;;;;;;;;;;;;;;;;;;
2023/07/28 08:39:26;;;;;;;549.97;512.65;;;;;;;;;;6436093;22;20068;-94
2023/07/28 08:45:32;;;;;;;;;;;;;;;;;;;;;
2023/07/28 08:57:14;;;;;;;561.53;522.90;;;;;;;;;;6289705;22;20003;-93
2023/07/28 09:03:01;;;;;;;606.60;563.47;;;;;;;;;;6360000;22;19897;-93
2023/07/28 09:05:29;;;;;;;605.67;563.45;;;;;;;;;;6254724;22;20006;-93
2023/07/28 09:08:08;;;;;;;622.67;579.20;;;;;;;;;;6406365;22;20010;-94
2023/07/28 09:10:46;;;;;;;628.58;584.78;;;;;;;;;;6409759;22;20028;-94
2023/07/28 09:13:15;;;;;;;629.50;585.67;;;;;;;;;;6410194;22;20013;-94
2023/07/28 09:15:45;;;;;;;663.40;612.83;;;;;;;;;;6408610;22;20021;-92
2023/07/28 09:18:33;;;;;;;608.85;565.63;;;;;;;;;;6411385;22;20380;-91
2023/07/28 09:24:23;;;;;;;646.40;599.00;;;;;;;;;;6450123;22;20012;-95
2023/07/28 09:30:20;;;;;;;;;;;;;;;;;;;;;
2023/07/28 09:42:00;;;;;;;657.45;611.40;;;;;;;;;;6305770;22;20029;-91
2023/07/28 09:53:43;;;;;;;;;;;;;;;;;;6247499;23;20384;-94
2023/07/28 09:56:32;;;;;;;;;;;;;;;;;;;;;
2023/07/28 09:59:06;;;;;;;646.40;602.22;;;;;;;;;;6310591;22;20082;-94
2023/07/28 10:07:21;;;;;;;621.88;579.30;;;;;;;;;;6308211;22;19962;-94
2023/07/28 10:10:07;;;;;;;642.80;598.28;;;;;;;;;;6335202;22;20007;-93
2023/07/28 10:13:00;;;;;;;636.28;592.60;;;;;;;;;;6331996;22;20038;-93
2023/07/28 10:15:33;;;;;;;661.35;615.47;;;;;;;;;;6339633;22;20090;-91
2023/07/28 10:18:05;;;;;;;616.95;574.70;;;;;;;;;;6357254;22;20011;-90
2023/07/28 10:20:31;;;;;;;;;;;;;;;;;;6352823;22;20026;-91
2023/07/28 10:23:06;;;;;;;645.28;600.80;;;;;;;;;;6310392;22;19977;-91
2023/07/28 10:25:36;;;;;;;630.83;587.67;;;;;;;;;;6334936;22;20378;-89
2023/07/28 10:28:03;;;;;;;618.80;577.13;;;;;;;;;;6333446;22;20086;-89
2023/07/28 10:30:30;;;;;;;618.20;575.38;;;;;;;;;;6332999;22;20055;-90
2023/07/28 10:32:59;;;;;;;559.78;521.83;;;;;;;;;;6349686;22;20097;-91
2023/07/28 10:35:54;;;;;;;581.55;542.17;;;;;;;;;;6334379;22;20004;-90
2023/07/28 10:38:31;;;;;;;623.30;580.20;;;;;;;;;;6306375;22;20052;-89
2023/07/28 10:41:15;;;;;;;619.60;576.85;;;;;;;;;;6329610;22;20019;-90
2023/07/28 10:43:44;;;;;;;620.45;578.13;;;;;;;;;;6333933;22;20034;-92
2023/07/28 10:46:14;;;;;;;619.92;577.28;;;;;;;;;;6334052;22;20004;-89
2023/07/28 10:48:45;;;;;;;608.78;566.53;;;;;;;;;;6334059;22;20003;-89
2023/07/28 10:51:12;;;;;;;612.80;570.95;;;;;;;;;;6333405;22;20030;-88
2023/07/28 10:53:50;;;;;;;603.70;562.88;;;;;;;;;;6335037;22;19999;-95
2023/07/28 10:56:17;;;;;;;566.40;528.30;;;;;;;;;;6332376;22;20040;-93
2023/07/28 10:58:43;;;;;;;578.08;538.75;;;;;;;;;;6333945;22;20011;-91
2023/07/28 11:01:24;;;;;;;611.15;569.63;;;;;;;;;;6333966;22;19999;-92
2023/07/28 11:03:59;;;;;;;588.42;548.38;;;;;;;;;;6334088;22;20003;-94
2023/07/28 11:06:32;;;;;;;605.90;564.13;;;;;;;;;;6334150;22;20014;-92
2023/07/28 11:09:09;;;;;;;595.25;554.60;;;;;;;;;;6335538;22;20033;-90
2023/07/28 11:14:01;;;;;;;589.33;549.17;;;;;;;;;;6398429;22;20018;-91
2023/07/28 11:16:37;;;;;;;604.58;562.95;;;;;;;;;;6376037;22;20002;-93
2023/07/28 11:22:15;;;;;;;585.15;545.45;;;;;;;;;;6307356;22;20484;-94
2023/07/28 11:25:11;;;;;;;;;;;;;;;;;;;;;
2023/07/28 11:28:25;;;;;;;598.53;556.75;;;;;;;;;;6400978;22;20045;-94
2023/07/28 11:31:26;;;;;;;612.63;570.65;;;;;;;;;;6372558;22;20368;-94
2023/07/28 11:39:53;;;;;;;;;;;;;;;;;;;;;
2023/07/28 11:43:09;;;;;;;592.08;551.67;;;;;;;;;;6309079;22;20082;-93
2023/07/28 11:45:58;;;;;;;604.10;561.92;;;;;;;;;;6286263;22;20448;-92
2023/07/28 11:48:31;;;;;;;617.08;573.80;;;;;;;;;;6253005;22;20030;-92
2023/07/28 12:21:00;;;;;;;592.00;551.13;;;;;;;;;;6242389;23;20031;-93
2023/07/28 12:26:19;;;;;;;598.50;557.65;;;;;;;;;;6350068;22;20083;-93
2023/07/28 12:28:45;;;;;;;620.35;577.47;;;;;;;;;;6380681;22;20006;-92
2023/07/28 12:37:11;;;;;;;613.58;571.63;;;;;;;;;;6438649;22;19901;-91
2023/07/28 12:42:36;;;;;;;586.72;546.85;;;;;;;;;;6328057;22;20100;-91
2023/07/28 12:45:04;;;;;;;569.30;530.13;;;;;;;;;;6407589;22;20490;-91
2023/07/28 12:47:37;;;;;;;594.28;552.90;;;;;;;;;;6404207;22;20029;-91
2023/07/28 12:50:07;;;;;;;553.88;516.85;;;;;;;;;;6404671;22;20013;-93
2023/07/28 12:58:33;;;;;;;559.47;522.10;;;;;;;;;;6406303;22;20050;-93
2023/07/28 13:01:04;;;;;;;543.00;506.73;;;;;;;;;;6404388;22;20009;-95
2023/07/28 13:09:41;;;;;;;515.55;480.73;;;;;;;;;;6406947;22;20056;-91
2023/07/28 13:12:08;;;;;;;572.58;534.28;;;;;;;;;;6390465;22;20008;-96
2023/07/28 13:25:42;;;;;;;632.22;576.22;;;;;;;;;;6311845;22;20061;-95
2023/07/28 13:31:25;;;;;;;454.13;424.63;;;;;;;;;;6186039;23;20015;-90
2023/07/28 13:33:58;;;;;;;442.33;413.85;;;;;;;;;;6186316;23;20082;-94
2023/07/28 13:36:36;;;;;;;483.83;451.10;;;;;;;;;;6186605;23;20006;-94
2023/07/28 13:39:02;;;;;;;379.48;355.92;;;;;;;;;;6156268;23;20044;-93
2023/07/28 13:41:28;;;;;;;344.45;321.98;;;;;;;;;;6222131;23;20446;-93
2023/07/28 13:43:54;;;;;;;446.83;409.27;;;;;;;;;;6220856;23;20006;-91
2023/07/28 13:48:55;;;;;;;428.83;398.40;;;;;;;;;;6407404;22;20527;-92
2023/07/28 13:51:52;;;;;;;307.55;289.23;;;;;;;;;;6390317;22;20021;-92
2023/07/28 13:54:24;;;;;;;313.65;294.73;;;;;;;;;;6381599;22;20365;-92
2023/07/28 13:56:51;;;;;;;312.87;294.17;;;;;;;;;;6376803;22;20014;-94
2023/07/28 13:59:20;;;;;;;303.27;285.15;;;;;;;;;;6376622;22;20010;-92
2023/07/28 14:01:46;;;;;;;323.90;303.83;;;;;;;;;;6376916;22;20098;-93
2023/07/28 14:10:32;;;;;;;337.40;316.30;;;;;;;;;;6419869;22;20001;-94
2023/07/28 14:12:58;;;;;;;369.90;346.33;;;;;;;;;;6403194;22;20010;-95
2023/07/28 14:15:33;;;;;;;358.45;336.95;;;;;;;;;;6382894;22;20025;-94
2023/07/28 14:18:06;;;;;;;390.45;366.30;;;;;;;;;;6378745;22;20005;-95
2023/07/28 14:23:28;;;;;;;343.83;323.25;;;;;;;;;;6404492;22;20351;-94
2023/07/28 14:25:57;;;;;;;356.13;334.70;;;;;;;;;;6378914;22;20002;-94
2023/07/28 14:28:26;;;;;;;397.35;372.95;;;;;;;;;;6381679;22;20002;-94
2023/07/28 14:31:09;;;;;;;;;;;;;;;;;;;;;
2023/07/28 14:33:41;;;;;;;396.27;371.63;;;;;;;;;;6407147;22;20085;-94
2023/07/28 14:39:14;;;;;;;386.98;362.33;;;;;;;;;;6406402;22;20035;-95
2023/07/28 14:42:13;;;;;;;385.58;361.75;;;;;;;;;;6377735;22;20012;-95
2023/07/28 14:44:48;;;;;;;408.00;381.95;;;;;;;;;;6376378;22;20323;-93
2023/07/28 14:47:17;;;;;;;369.05;346.70;;;;;;;;;;6376913;22;20013;-93
2023/07/28 14:49:49;;;;;;;443.02;414.98;;;;;;;;;;6376595;22;20419;-93
2023/07/28 14:52:15;;;;;;;383.75;360.50;;;;;;;;;;6376692;22;20002;-93
2023/07/28 14:54:47;;;;;;;447.05;419.00;;;;;;;;;;6377786;22;20012;-95
2023/07/28 14:57:29;;;;;;;481.60;450.37;;;;;;;;;;6378732;22;20001;-94
2023/07/28 15:00:15;;;;;;;;;;;;;;;;;;;;;
2023/07/28 15:02:51;;;;;;;411.25;385.73;;;;;;;;;;6405774;22;20308;-95
2023/07/28 15:08:29;;;;;;;472.00;441.50;;;;;;;;;;6410146;22;20017;-95
2023/07/28 15:11:01;;;;;;;446.20;418.20;;;;;;;;;;6313558;22;20036;-93
2023/07/28 15:13:36;;;;;;;441.23;413.57;;;;;;;;;;6313210;22;20013;-93
2023/07/28 15:16:13;;;;;;;422.58;396.20;;;;;;;;;;6314045;22;20028;-95
2023/07/28 15:18:39;;;;;;;422.05;395.90;;;;;;;;;;6314302;22;20003;-94
2023/07/28 15:21:31;;;;;;;411.42;385.95;;;;;;;;;;6335364;22;20064;-94
2023/07/28 15:24:06;;;;;;;447.13;419.08;;;;;;;;;;6313034;22;20022;-94
2023/07/28 15:26:38;;;;;;;424.60;398.42;;;;;;;;;;6314019;22;20420;-95
2023/07/28 15:29:08;;;;;;;426.02;399.55;;;;;;;;;;6312858;22;20738;-95
2023/07/28 15:31:43;;;;;;;443.25;415.02;;;;;;;;;;6312970;22;20336;-95
2023/07/28 15:34:15;;;;;;;443.58;415.92;;;;;;;;;;6314451;22;20003;-95
2023/07/28 15:36:51;;;;;;;431.52;405.08;;;;;;;;;;6314596;22;20093;-95
2023/07/28 15:39:26;;;;;;;444.00;416.38;;;;;;;;;;6312760;22;20007;-94
2023/07/28 15:41:58;;;;;;;452.00;423.90;;;;;;;;;;6345539;22;20026;-94
2023/07/28 15:44:24;;;;;;;504.75;472.20;;;;;;;;;;6401679;22;20002;-96
2023/07/28 15:46:52;;;;;;;492.13;459.73;;;;;;;;;;6403728;22;20005;-96
2023/07/28 15:55:03;;;;;;;576.53;536.40;;;;;;;;;;6402653;22;20009;-94
2023/07/28 15:57:32;;;;;;;511.17;476.42;;;;;;;;;;6398689;22;20030;-94
2023/07/28 16:00:15;;;;;;;;;;;;;;;;;;;;;
2023/07/28 16:02:46;;;;;;;546.40;509.50;;;;;;;;;;6373840;22;20479;-93
2023/07/28 16:05:16;;;;;;;560.08;521.83;;;;;;;;;;6377068;22;20336;-96
2023/07/28 16:07:42;;;;;;;592.30;551.67;;;;;;;;;;6386276;22;19998;-93
2023/07/28 16:10:37;;;;;;;;;;;;;;;;;;;;;
2023/07/28 16:13:15;;;;;;;551.08;514.13;;;;;;;;;;6382312;22;20029;-95
2023/07/28 16:15:47;;;;;;;602.95;562.22;;;;;;;;;;6374428;22;20028;-95
2023/07/28 16:18:14;;;;;;;569.40;531.17;;;;;;;;;;6369965;22;20069;-95
2023/07/28 16:21:00;;;;;;;594.83;554.42;;;;;;;;;;6370313;22;20455;-95
2023/07/28 16:23:49;;;;;;;601.10;560.35;;;;;;;;;;6392823;22;20037;-93
2023/07/28 16:30:21;;;;;;;625.72;582.97;;;;;;;;;;6313299;22;20511;-96
2023/07/28 16:33:12;;;;;;;623.63;580.40;;;;;;;;;;6253649;22;20026;-93
2023/07/28 16:35:41;;;;;;;578.30;538.92;;;;;;;;;;6249537;22;20026;-94
2023/07/28 16:38:10;;;;;;;604.10;563.00;;;;;;;;;;6371918;22;20058;-94
2023/07/28 16:44:15;;;;;;;571.15;532.50;;;;;;;;;;6403407;22;20028;-93
2023/07/28 16:50:09;;;;;;;589.20;549.90;;;;;;;;;;6337473;22;20400;-93
2023/07/28 16:52:41;;;;;;;618.35;575.58;;;;;;;;;;6321405;22;20037;-93
2023/07/28 16:55:10;;;;;;;577.37;538.57;;;;;;;;;;6375436;22;19998;-93
2023/07/28 16:57:48;;;;;;;574.03;535.50;;;;;;;;;;6375223;22;20010;-92
2023/07/28 17:00:41;;;;;;;543.42;507.50;;;;;;;;;;6375128;22;20312;-92
2023/07/28 17:03:12;;;;;;;585.53;545.75;;;;;;;;;;6375743;22;20009;-92
2023/07/28 17:09:06;;;;;;;577.60;538.72;;;;;;;;;;6273061;22;20004;-92
2023/07/28 17:11:35;;;;;;;582.83;543.65;;;;;;;;;;6292502;22;20009;-92
2023/07/28 17:14:02;;;;;;;547.25;511.25;;;;;;;;;;6375087;22;20607;-90
2023/07/28 17:16:30;;;;;;;515.28;482.20;;;;;;;;;;6375205;22;20499;-94
2023/07/28 17:19:00;;;;;;;552.78;515.90;;;;;;;;;;6377004;22;20484;-93
2023/07/28 17:21:26;;;;;;;530.08;495.45;;;;;;;;;;6376247;22;20005;-91
2023/07/28 17:23:56;;;;;;;494.35;462.33;;;;;;;;;;6371345;22;20010;-92
2023/07/28 17:26:28;;;;;;;537.70;502.50;;;;;;;;;;6372609;22;20030;-90
2023/07/28 17:29:06;;;;;;;554.23;517.17;;;;;;;;;;6372277;22;20557;-90
2023/07/28 17:31:35;;;;;;;531.78;496.30;;;;;;;;;;6371847;22;20002;-95
2023/07/28 17:34:07;;;;;;;510.67;477.42;;;;;;;;;;6372427;22;19999;-94
2023/07/28 17:37:03;;;;;;;542.75;506.75;;;;;;;;;;6372929;22;20006;-89
2023/07/28 17:39:35;;;;;;;472.90;443.15;;;;;;;;;;6367137;22;20441;-94
2023/07/28 17:42:01;;;;;;;482.55;452.25;;;;;;;;;;6373654;22;20151;-88
2023/07/28 17:44:27;;;;;;;488.80;457.42;;;;;;;;;;6372476;22;20051;-90
2023/07/28 17:46:56;;;;;;;472.58;443.17;;;;;;;;;;6373333;22;20085;-91
2023/07/28 17:49:23;;;;;;;491.17;460.10;;;;;;;;;;6375586;22;20028;-92
2023/07/28 17:51:49;;;;;;;475.98;445.25;;;;;;;;;;6374578;22;20009;-92
2023/07/28 17:54:21;;;;;;;468.20;439.17;;;;;;;;;;6384162;22;20007;-90
2023/07/28 17:56:53;;;;;;;503.67;470.95;;;;;;;;;;6393477;22;19990;-91
2023/07/28 17:59:20;;;;;;;496.33;464.80;;;;;;;;;;6372303;22;20014;-91
2023/07/28 18:01:46;;;;;;;463.30;433.88;;;;;;;;;;6372247;22;20518;-90
2023/07/28 18:04:12;;;;;;;480.10;449.60;;;;;;;;;;6379530;22;19986;-91
2023/07/28 18:06:38;;;;;;;463.70;434.77;;;;;;;;;;6382166;22;20006;-93
2023/07/28 18:09:05;;;;;;;521.10;487.10;;;;;;;;;;6391864;22;20005;-89
2023/07/28 18:11:34;;;;;;;467.58;438.10;;;;;;;;;;6380700;22;20061;-90
2023/07/28 18:14:08;;;;;;;506.30;473.45;;;;;;;;;;6374386;22;20028;-96
2023/07/28 18:16:37;;;;;;;501.85;468.90;;;;;;;;;;6373625;22;20006;-94
2023/07/28 18:19:06;;;;;;;500.73;468.17;;;;;;;;;;6372069;22;20007;-94
2023/07/28 18:21:50;;;;;;;491.23;460.27;;;;;;;;;;6373758;22;20136;-91
2023/07/28 18:24:28;;;;;;;502.35;470.00;;;;;;;;;;6342965;22;20407;-92
2023/07/28 18:26:57;;;;;;;530.78;495.88;;;;;;;;;;6346423;22;20007;-92
2023/07/28 18:32:36;;;;;;;492.08;460.33;;;;;;;;;;6341189;22;20148;-94
2023/07/28 18:35:12;;;;;;;469.95;440.25;;;;;;;;;;6328733;22;20045;-96
2023/07/28 19:49:54;;;;;;;485.52;453.70;;;;;;;;;;5822995;24;20007;-95
2023/07/28 19:56:10;;;;;;;;;;;;;;;;;;;;;
2023/07/28 19:58:54;;;;;;;392.10;367.80;;;;;;;;;;5999116;23;20036;-96
2023/07/28 20:08:07;;;;;;;;;;;;;;;;;;;;;
2023/07/28 20:11:11;;;;;;;;;;;;;;;;;;;;;
2023/07/28 20:13:59;;;;;;;435.45;407.45;;;;;;;;;;6040156;23;20063;-95
2023/07/28 21:12:10;;;;;;;275.02;258.70;;;;;;;;;;6342126;22;20018;-96
2023/07/28 21:15:14;;;;;;;317.80;299.00;;;;;;;;;;6382089;22;19993;-96
2023/07/28 21:20:34;;;;;;;233.70;220.60;;;;;;;;;;6354221;22;19936;-96
2023/07/28 21:32:25;;;;;;;216.13;204.03;;;;;;;;;;6318028;22;20030;-96
2023/07/28 21:37:57;;;;;;;172.18;161.90;;;;;;;;;;6318966;22;19988;-95
2023/07/28 21:47:05;;;;;;;130.00;122.40;;;;;;;;;;6317231;22;20091;-96
2023/07/28 22:03:03;;;;;;;;;;;;;;;;;;;;;
2023/07/28 22:41:03;;;;;;;131.18;123.40;;;;;;;;;;6317454;22;20052;-96
2023/07/28 22:46:46;;;;;;;;;;;;;;;;;;;;;
2023/07/28 22:49:33;;;;;;;124.60;117.63;;;;;;;;;;6424512;22;20025;-94
2023/07/28 22:52:21;;;;;;;101.47;95.72;;;;;;;;;;6415293;22;20006;-96
2023/07/28 22:54:48;;;;;;;127.43;120.07;;;;;;;;;;6414739;22;20006;-95
2023/07/28 22:57:46;;;;;;;127.38;119.93;;;;;;;;;;6414991;22;20001;-96
2023/07/28 23:46:58;;;;;;;710.30;652.70;;;;;;;;;;6373058;22;20351;-96
2023/07/28 23:49:34;;;;;;;663.10;607.00;;;;;;;;;;6393386;22;20009;-96
2023/07/28 23:59:05;;;;;;;;;;;;;;;;;;;;;
